Time,TemperatureF,DewpointF,PressureIn,WindDirection,WindDirectionDegrees,WindSpeedMPH,WindSpeedGustMPH,Humidity,HourlyPrecipIn,Conditions,Clouds,dailyrainin,SoftwareType,DateUTC
2013-03-05 00:01:00,37.6,36.5,29.86,South,180,0.0,0.0,96,0.00,CLR,,0.00,WeatherDisplay:10.37,2013-03-05 08:01:00,
2013-03-05 00:06:00,37.6,36.5,29.87,SW,225,1.2,0.0,96,0.00,CLR,,0.00,WeatherDisplay:10.37,2013-03-05 08:06:00,
2013-03-05 00:11:00,37.8,36.7,29.86,West,270,1.2,0.0,96,0.00,CLR,,0.00,WeatherDisplay:10.37,2013-03-05 08:11:00,
2013-03-05 00:16:00,37.8,36.7,29.86,NE,45,1.2,1.2,96,0.00,CLR,,0.00,WeatherDisplay:10.37,2013-03-05 08:16:00,
2013-03-05 00:21:00,37.9,36.9,29.86,SE,135,1.2,0.0,96,0.00,CLR,,0.00,WeatherDisplay:10.37,2013-03-05 08:21:00,
2013-03-05 00:26:00,38.1,37.1,29.85,NE,45,1.2,0.0,96,0.00,CLR,,0.00,WeatherDisplay:10.37,2013-03-05 08:26:00,
2013-03-05 00:31:00,38.1,37.1,29.85,NW,315,2.3,0.0,96,0.00,CLR,,0.00,WeatherDisplay:10.37,2013-03-05 08:31:00,
2013-03-05 00:36:00,38.3,37.3,29.85,NW,315,0.0,0.0,96,0.00,CLR,,0.00,WeatherDisplay:10.37,2013-03-05 08:36:00,
2013-03-05 00:41:00,38.3,37.3,29.85,East,90,0.0,0.0,96,0.00,CLR,,0.00,WeatherDisplay:10.37,2013-03-05 08:41:00,
2013-03-05 00:46:00,38.5,37.4,29.85,South,180,1.2,0.0,96,0.00,CLR,,0.00,WeatherDisplay:10.37,2013-03-05 08:46:00,
2013-03-05 00:51:00,38.5,37.4,29.85,South,180,0.0,0.0,96,0.00,CLR,,0.00,WeatherDisplay:10.37,2013-03-05 08:51:00,
2013-03-05 00:56:00,38.5,37.4,29.85,South,180,0.0,0.0,96,0.00,CLR,,0.00,WeatherDisplay:10.37,2013-03-05 08:56:00,
2013-03-05 01:01:00,38.7,37.6,29.85,South,180,0.0,0.0,96,0.00,CLR,,0.00,WeatherDisplay:10.37,2013-03-05 09:01:00,
2013-03-05 01:06:00,38.7,37.6,29.84,South,180,0.0,0.0,96,0.00,CLR,,0.00,WeatherDisplay:10.37,2013-03-05 09:06:00,
2013-03-05 01:11:00,38.8,37.8,29.85,SW,225,1.2,0.0,96,0.00,CLR,,0.00,WeatherDisplay:10.37,2013-03-05 09:11:00,
2013-03-05 01:16:00,38.8,38.1,29.84,SW,225,1.2,0.0,97,0.00,CLR,,0.00,WeatherDisplay:10.37,2013-03-05 09:16:00,
2013-03-05 01:21:00,39.0,38.0,29.84,South,180,0.0,0.0,96,0.00,CLR,,0.00,WeatherDisplay:10.37,2013-03-05 09:21:00,
2013-03-05 01:26:00,39.0,38.2,29.84,South,180,0.0,0.0,97,0.00,CLR,,0.00,WeatherDisplay:10.37,2013-03-05 09:26:00,
2013-03-05 01:31:00,39.0,38.0,29.84,South,180,0.0,0.0,96,0.00,CLR,,0.00,WeatherDisplay:10.37,2013-03-05 09:31:00,
2013-03-05 01:36:00,39.2,38.4,29.84,West,270,1.2,0.0,97,0.00,CLR,,0.00,WeatherDisplay:10.37,2013-03-05 09:36:00,
2013-03-05 01:41:00,39.2,38.4,29.83,NE,45,1.2,0.0,97,0.00,CLR,,0.00,WeatherDisplay:10.37,2013-03-05 09:41:00,
2013-03-05 01:46:00,39.4,38.6,29.84,North,0,1.2,0.0,97,0.00,CLR,,0.00,WeatherDisplay:10.37,2013-03-05 09:46:00,
2013-03-05 01:51:00,39.6,38.8,29.83,NW,315,1.2,0.0,97,0.00,CLR,,0.00,WeatherDisplay:10.37,2013-03-05 09:51:00,
2013-03-05 01:56:00,39.6,38.8,29.83,West,270,0.0,0.0,97,0.00,CLR,,0.00,WeatherDisplay:10.37,2013-03-05 09:56:00,
2013-03-05 02:01:00,39.6,38.8,29.83,SW,225,0.0,0.0,97,0.00,CLR,,0.00,WeatherDisplay:10.37,2013-03-05 10:01:00,
2013-03-05 02:06:00,39.7,39.0,29.83,SW,225,0.0,0.0,97,0.00,CLR,,0.00,WeatherDisplay:10.37,2013-03-05 10:06:00,
2013-03-05 02:11:00,39.7,39.0,29.83,South,180,0.0,0.0,97,0.00,CLR,,0.00,WeatherDisplay:10.37,2013-03-05 10:11:00,
2013-03-05 02:16:00,39.9,39.1,29.83,South,180,0.0,0.0,97,0.00,CLR,,0.00,WeatherDisplay:10.37,2013-03-05 10:16:00,
2013-03-05 02:21:00,39.9,39.1,29.83,South,180,0.0,0.0,97,0.00,CLR,,0.00,WeatherDisplay:10.37,2013-03-05 10:21:00,
2013-03-05 02:26:00,39.9,39.1,29.82,South,180,0.0,0.0,97,0.00,CLR,,0.00,WeatherDisplay:10.37,2013-03-05 10:26:00,
2013-03-05 02:31:00,40.1,39.3,29.83,SW,225,0.0,0.0,97,0.00,CLR,,0.00,WeatherDisplay:10.37,2013-03-05 10:31:00,
2013-03-05 02:37:00,40.1,39.3,29.82,SW,225,0.0,0.0,97,0.00,CLR,,0.00,WeatherDisplay:10.37,2013-03-05 10:37:00,
2013-03-05 02:42:00,40.1,39.3,29.82,SW,225,1.2,0.0,97,0.00,CLR,,0.00,WeatherDisplay:10.37,2013-03-05 10:42:00,
2013-03-05 02:47:00,40.3,39.5,29.82,SW,225,0.0,0.0,97,0.00,CLR,,0.00,WeatherDisplay:10.37,2013-03-05 10:47:00,
2013-03-05 02:52:00,40.3,39.5,29.82,West,270,0.0,0.0,97,0.00,CLR,,0.00,WeatherDisplay:10.37,2013-03-05 10:52:00,
2013-03-05 02:57:00,40.3,39.5,29.82,SW,225,0.0,0.0,97,0.00,CLR,,0.00,WeatherDisplay:10.37,2013-03-05 10:57:00,
2013-03-05 03:02:00,40.5,39.7,29.82,SW,225,0.0,0.0,97,0.00,CLR,,0.00,WeatherDisplay:10.37,2013-03-05 11:02:00,
2013-03-05 03:07:00,40.5,39.7,29.81,SW,225,1.2,0.0,97,0.00,CLR,,0.00,WeatherDisplay:10.37,2013-03-05 11:07:00,
2013-03-05 03:12:00,40.6,39.9,29.81,SW,225,0.0,0.0,97,0.00,CLR,,0.00,WeatherDisplay:10.37,2013-03-05 11:12:00,
2013-03-05 03:17:00,40.5,39.7,29.81,South,180,1.2,0.0,97,0.00,CLR,,0.01,WeatherDisplay:10.37,2013-03-05 11:17:00,
2013-03-05 03:22:00,40.6,39.9,29.80,NE,45,1.2,0.0,97,0.01,RA,,0.01,WeatherDisplay:10.37,2013-03-05 11:22:00,
2013-03-05 03:27:00,40.6,39.9,29.80,North,0,1.2,0.0,97,0.01,RA,,0.01,WeatherDisplay:10.37,2013-03-05 11:27:00,
2013-03-05 03:32:00,40.6,39.9,29.80,NW,315,0.0,0.0,97,0.01,CLR,,0.01,WeatherDisplay:10.37,2013-03-05 11:32:00,
2013-03-05 03:37:00,40.8,40.0,29.79,NE,45,1.2,1.2,97,0.01,CLR,,0.01,WeatherDisplay:10.37,2013-03-05 11:37:00,
2013-03-05 03:42:00,40.8,40.0,29.79,NE,45,1.2,0.0,97,0.01,CLR,,0.01,WeatherDisplay:10.37,2013-03-05 11:42:00,
2013-03-05 03:47:00,41.0,40.2,29.79,NW,315,1.2,0.0,97,0.02,RA,,0.02,WeatherDisplay:10.37,2013-03-05 11:47:00,
2013-03-05 03:52:00,41.0,40.2,29.79,North,0,2.3,0.0,97,0.02,RA,,0.02,WeatherDisplay:10.37,2013-03-05 11:52:00,
2013-03-05 03:57:00,41.2,40.4,29.80,South,180,1.2,1.6,97,0.02,CLR,,0.02,WeatherDisplay:10.37,2013-03-05 11:57:00,
2013-03-05 04:02:00,41.2,40.4,29.79,SE,135,1.2,0.0,97,0.04,RA,,0.04,WeatherDisplay:10.37,2013-03-05 12:02:00,
2013-03-05 04:07:00,41.2,40.4,29.79,SE,135,1.2,0.0,97,0.04,RA,,0.04,WeatherDisplay:10.37,2013-03-05 12:07:00,
2013-03-05 04:12:00,41.2,40.4,29.79,West,270,2.3,2.3,97,0.04,,,0.04,WeatherDisplay:10.37,2013-03-05 12:12:00,
2013-03-05 04:17:00,41.4,40.6,29.80,SW,225,1.2,0.0,97,0.04,CLR,,0.04,WeatherDisplay:10.37,2013-03-05 12:17:00,
2013-03-05 04:22:00,41.4,40.6,29.80,West,270,0.0,0.0,97,0.02,CLR,,0.04,WeatherDisplay:10.37,2013-03-05 12:22:00,
2013-03-05 04:27:00,41.4,40.6,29.81,SW,225,1.2,0.0,97,0.02,CLR,,0.04,WeatherDisplay:10.37,2013-03-05 12:27:00,
2013-03-05 04:32:00,41.4,40.8,29.80,North,0,0.0,0.0,98,0.04,RA,,0.06,WeatherDisplay:10.37,2013-03-05 12:32:00,
2013-03-05 04:37:00,41.4,40.6,29.80,West,270,0.0,0.0,97,0.05,RA,,0.06,WeatherDisplay:10.37,2013-03-05 12:37:00,
2013-03-05 04:42:00,41.5,40.8,29.80,South,180,1.2,1.2,97,0.05,RA,,0.06,WeatherDisplay:10.37,2013-03-05 12:42:00,
2013-03-05 04:47:00,41.5,41.0,29.81,SE,135,1.2,0.0,98,0.05,RA,,0.07,WeatherDisplay:10.37,2013-03-05 12:47:00,
2013-03-05 04:52:00,41.7,41.2,29.81,NE,45,3.5,0.0,98,0.06,RA,,0.08,WeatherDisplay:10.37,2013-03-05 12:52:00,
2013-03-05 04:57:00,42.1,41.6,29.80,West,270,10.4,10.4,98,0.06,RA,,0.08,WeatherDisplay:10.37,2013-03-05 12:57:00,
2013-03-05 05:02:00,43.5,43.3,29.81,SW,225,12.7,12.7,99,0.05,CLR,,0.08,WeatherDisplay:10.37,2013-03-05 13:02:00,
2013-03-05 05:07:00,44.2,44.0,29.81,SW,225,12.7,12.7,99,0.05,CLR,,0.08,WeatherDisplay:10.37,2013-03-05 13:07:00,
2013-03-05 05:12:00,44.4,44.2,29.80,South,180,13.8,13.8,99,0.05,CLR,,0.08,WeatherDisplay:10.37,2013-03-05 13:12:00,
2013-03-05 05:17:00,44.6,44.1,29.81,South,180,23.0,23.0,98,0.06,RA,,0.09,WeatherDisplay:10.37,2013-03-05 13:17:00,
2013-03-05 05:22:00,44.6,43.8,29.80,South,180,20.7,20.7,97,0.07,RA,,0.11,WeatherDisplay:10.37,2013-03-05 13:22:00,
2013-03-05 05:27:00,44.6,43.8,29.81,SW,225,20.7,20.7,97,0.07,RA,,0.11,WeatherDisplay:10.37,2013-03-05 13:27:00,
2013-03-05 05:32:00,44.6,43.5,29.81,SSW,202,26.5,26.5,96,0.07,RA,,0.12,WeatherDisplay:10.37,2013-03-05 13:32:00,
2013-03-05 05:37:00,44.6,43.5,29.82,WSW,248,17.3,17.3,96,0.06,RA,,0.13,WeatherDisplay:10.37,2013-03-05 13:37:00,
2013-03-05 05:42:00,44.4,43.4,29.82,SW,225,5.8,5.8,96,0.07,RA,,0.13,WeatherDisplay:10.37,2013-03-05 13:42:00,
2013-03-05 05:47:00,44.2,43.4,29.81,NW,315,8.1,8.1,97,0.08,RA,,0.15,WeatherDisplay:10.37,2013-03-05 13:47:00,
2013-03-05 05:52:00,43.9,43.1,29.81,SW,225,3.5,3.5,97,0.07,RA,,0.15,WeatherDisplay:10.37,2013-03-05 13:52:00,
2013-03-05 05:57:00,43.7,42.9,29.81,SW,225,3.5,0.0,97,0.08,RA,,0.17,WeatherDisplay:10.37,2013-03-05 13:57:00,
2013-03-05 06:02:00,43.7,42.9,29.82,West,270,3.5,3.5,97,0.09,RA,,0.18,WeatherDisplay:10.37,2013-03-05 14:02:00,
2013-03-05 06:07:00,43.7,42.9,29.82,NW,315,1.2,1.6,97,0.09,RA,,0.18,WeatherDisplay:10.37,2013-03-05 14:07:00,
2013-03-05 06:12:00,43.5,42.7,29.82,West,270,1.2,0.0,97,0.11,RA,,0.19,WeatherDisplay:10.37,2013-03-05 14:12:00,
2013-03-05 06:17:00,43.5,42.7,29.81,North,0,1.2,0.0,97,0.11,RA,,0.20,WeatherDisplay:10.37,2013-03-05 14:17:00,
2013-03-05 06:22:00,43.5,42.7,29.82,NE,45,1.2,0.0,97,0.09,RA,,0.20,WeatherDisplay:10.37,2013-03-05 14:22:00,
2013-03-05 06:27:00,43.5,42.7,29.82,NE,45,0.0,0.0,97,0.09,,,0.20,WeatherDisplay:10.37,2013-03-05 14:27:00,
2013-03-05 06:32:00,43.3,42.5,29.81,East,90,1.2,0.0,97,0.09,RA,,0.21,WeatherDisplay:10.37,2013-03-05 14:32:00,
2013-03-05 06:37:00,43.3,42.5,29.82,East,90,1.2,1.2,97,0.11,RA,,0.22,WeatherDisplay:10.37,2013-03-05 14:37:00,
2013-03-05 06:42:00,43.2,42.4,29.82,East,90,1.2,0.0,97,0.09,RA,,0.22,WeatherDisplay:10.37,2013-03-05 14:42:00,
2013-03-05 06:47:00,43.2,42.4,29.82,South,180,1.2,0.0,97,0.07,,,0.24,WeatherDisplay:10.37,2013-03-05 14:47:00,
2013-03-05 06:52:00,43.2,42.6,29.81,South,180,1.2,0.0,98,0.08,RA,,0.24,WeatherDisplay:10.37,2013-03-05 14:52:00,
2013-03-05 06:57:00,43.0,42.5,29.82,SE,135,1.2,0.0,98,0.08,RA,,0.25,WeatherDisplay:10.37,2013-03-05 14:57:00,
2013-03-05 07:02:00,43.0,42.5,29.82,SE,135,1.2,0.0,98,0.07,RA,,0.25,WeatherDisplay:10.37,2013-03-05 15:02:00,
2013-03-05 07:07:00,43.0,42.5,29.82,SE,135,0.0,0.0,98,0.08,RA,,0.26,WeatherDisplay:10.37,2013-03-05 15:07:00,
2013-03-05 07:12:00,43.0,42.5,29.81,SE,135,0.0,0.0,98,0.08,RA,,0.27,WeatherDisplay:10.37,2013-03-05 15:12:00,
2013-03-05 07:17:00,42.8,42.3,29.82,SE,135,0.0,0.0,98,0.07,RA,,0.27,WeatherDisplay:10.37,2013-03-05 15:17:00,
2013-03-05 07:22:00,42.8,42.3,29.82,SE,135,0.0,0.0,98,0.08,RA,,0.28,WeatherDisplay:10.37,2013-03-05 15:22:00,
2013-03-05 07:27:00,42.8,42.3,29.82,SE,135,0.0,0.0,98,0.09,RA,,0.30,WeatherDisplay:10.37,2013-03-05 15:27:00,
2013-03-05 07:32:00,42.8,42.3,29.82,SE,135,0.0,0.0,98,0.08,RA,,0.30,WeatherDisplay:10.37,2013-03-05 15:32:00,
2013-03-05 07:37:00,42.8,42.3,29.82,NE,45,1.2,0.0,98,0.08,RA,,0.31,WeatherDisplay:10.37,2013-03-05 15:37:00,
2013-03-05 07:42:00,42.8,42.3,29.81,North,0,2.3,0.0,98,0.09,RA,,0.32,WeatherDisplay:10.37,2013-03-05 15:42:00,
2013-03-05 07:48:00,42.8,42.3,29.82,SW,225,2.3,2.3,98,0.08,RA,,0.32,WeatherDisplay:10.37,2013-03-05 15:48:00,
2013-03-05 07:53:00,42.8,42.3,29.82,North,0,1.2,0.0,98,0.09,RA,,0.33,WeatherDisplay:10.37,2013-03-05 15:53:00,
2013-03-05 07:58:00,42.8,42.3,29.81,North,0,0.0,0.0,98,0.09,RA,,0.34,WeatherDisplay:10.37,2013-03-05 15:58:00,
2013-03-05 08:03:00,42.8,42.3,29.82,North,0,0.0,0.0,98,0.11,RA,,0.35,WeatherDisplay:10.37,2013-03-05 16:03:00,
2013-03-05 08:08:00,42.8,42.3,29.81,SSW,202,3.5,3.5,98,0.09,RA,,0.35,WeatherDisplay:10.37,2013-03-05 16:08:00,
2013-03-05 08:13:00,42.8,42.3,29.82,South,180,3.5,3.5,98,0.09,RA,,0.37,WeatherDisplay:10.37,2013-03-05 16:13:00,
2013-03-05 08:18:00,42.8,42.3,29.81,South,180,3.5,3.5,98,0.09,RA,,0.37,WeatherDisplay:10.37,2013-03-05 16:18:00,
2013-03-05 08:23:00,42.8,42.5,29.81,SW,225,3.5,3.5,99,0.08,CLR,,0.37,WeatherDisplay:10.37,2013-03-05 16:23:00,
2013-03-05 08:28:00,42.6,42.4,29.81,South,180,0.0,0.0,99,0.07,CLR,,0.37,WeatherDisplay:10.37,2013-03-05 16:28:00,
2013-03-05 08:33:00,42.8,42.5,29.82,South,180,1.2,1.2,99,0.07,CLR,,0.37,WeatherDisplay:10.37,2013-03-05 16:33:00,
2013-03-05 08:38:00,42.8,42.5,29.81,South,180,1.2,0.0,99,0.07,RA,,0.38,WeatherDisplay:10.37,2013-03-05 16:38:00,
2013-03-05 08:43:00,43.0,42.7,29.81,South,180,1.2,0.0,99,0.06,RA,,0.38,WeatherDisplay:10.37,2013-03-05 16:43:00,
2013-03-05 08:48:00,43.0,42.7,29.81,SE,135,1.2,0.0,99,0.06,CLR,,0.38,WeatherDisplay:10.37,2013-03-05 16:48:00,
2013-03-05 08:53:00,43.0,42.7,29.81,SW,225,1.2,0.0,99,0.06,RA,,0.39,WeatherDisplay:10.37,2013-03-05 16:53:00,
2013-03-05 08:58:00,43.0,42.7,29.81,SW,225,0.0,0.0,99,0.05,RA,,0.39,WeatherDisplay:10.37,2013-03-05 16:58:00,
2013-03-05 09:03:00,43.0,42.7,29.81,East,90,1.2,0.0,99,0.04,CLR,,0.39,WeatherDisplay:10.37,2013-03-05 17:03:00,
2013-03-05 09:08:00,43.0,42.7,29.81,East,90,0.0,0.0,99,0.04,CLR,,0.39,WeatherDisplay:10.37,2013-03-05 17:08:00,
2013-03-05 09:13:00,43.2,42.9,29.81,South,180,0.0,0.0,99,0.02,CLR,,0.39,WeatherDisplay:10.37,2013-03-05 17:13:00,
2013-03-05 09:18:00,43.2,42.9,29.81,South,180,1.2,0.0,99,0.04,RA,,0.40,WeatherDisplay:10.37,2013-03-05 17:18:00,
2013-03-05 09:23:00,43.2,42.9,29.81,South,180,0.0,0.0,99,0.04,RA,,0.40,WeatherDisplay:10.37,2013-03-05 17:23:00,
2013-03-05 09:28:00,43.2,42.9,29.81,East,90,0.0,0.0,99,0.05,RA,,0.41,WeatherDisplay:10.37,2013-03-05 17:28:00,
2013-03-05 09:33:00,43.3,43.1,29.81,NE,45,0.0,0.0,99,0.05,RA,,0.41,WeatherDisplay:10.37,2013-03-05 17:33:00,
2013-03-05 09:38:00,43.5,43.3,29.81,East,90,2.3,0.0,99,0.04,,,0.41,WeatherDisplay:10.37,2013-03-05 17:38:00,
2013-03-05 09:43:00,43.3,43.1,29.81,SW,225,1.2,1.2,99,0.04,CLR,,0.41,WeatherDisplay:10.37,2013-03-05 17:43:00,
2013-03-05 09:48:00,43.0,42.7,29.81,SSE,158,4.6,4.6,99,0.04,CLR,,0.41,WeatherDisplay:10.37,2013-03-05 17:48:00,
2013-03-05 09:53:00,43.0,42.7,29.81,SE,135,4.6,4.6,99,0.04,RA,,0.43,WeatherDisplay:10.37,2013-03-05 17:53:00,
2013-03-05 09:58:00,42.8,42.5,29.81,SE,135,5.8,5.8,99,0.05,RA,,0.44,WeatherDisplay:10.37,2013-03-05 17:58:00,
2013-03-05 10:03:00,42.6,42.4,29.81,SE,135,4.6,4.6,99,0.05,RA,,0.44,WeatherDisplay:10.37,2013-03-05 18:03:00,
2013-03-05 10:08:00,42.6,42.1,29.81,South,180,5.8,5.8,98,0.05,,,0.44,WeatherDisplay:10.37,2013-03-05 18:08:00,
2013-03-05 10:13:00,42.8,42.3,29.81,South,180,3.5,0.0,98,0.06,RA,,0.45,WeatherDisplay:10.37,2013-03-05 18:13:00,
2013-03-05 10:18:00,42.8,42.3,29.81,SW,225,1.2,0.0,98,0.06,RA,,0.46,WeatherDisplay:10.37,2013-03-05 18:18:00,
2013-03-05 10:23:00,42.8,42.3,29.81,West,270,4.6,4.6,98,0.07,RA,,0.47,WeatherDisplay:10.37,2013-03-05 18:23:00,
2013-03-05 10:28:00,43.0,42.5,29.81,SW,225,4.5,4.5,98,0.06,RA,,0.47,WeatherDisplay:10.37,2013-03-05 18:28:00,
2013-03-05 10:33:00,43.0,42.5,29.81,SW,225,2.3,2.3,98,0.07,RA,,0.48,WeatherDisplay:10.37,2013-03-05 18:33:00,
2013-03-05 10:38:00,43.0,42.5,29.81,South,180,3.8,3.8,98,0.07,RA,,0.48,WeatherDisplay:10.37,2013-03-05 18:38:00,
2013-03-05 10:43:00,43.0,42.5,29.80,South,180,5.8,5.8,98,0.08,RA,,0.50,WeatherDisplay:10.37,2013-03-05 18:43:00,
2013-03-05 10:48:00,43.0,42.5,29.81,South,180,3.5,4.5,98,0.08,RA,,0.51,WeatherDisplay:10.37,2013-03-05 18:48:00,
2013-03-05 10:53:00,42.8,42.0,29.80,South,180,8.1,8.1,97,0.08,RA,,0.51,WeatherDisplay:10.37,2013-03-05 18:53:00,
2013-03-05 10:58:00,43.0,42.2,29.80,East,90,8.1,8.1,97,0.07,RA,,0.51,WeatherDisplay:10.37,2013-03-05 18:58:00,
2013-03-05 11:04:00,43.2,42.4,29.80,SE,135,3.5,3.5,97,0.08,RA,,0.52,WeatherDisplay:10.37,2013-03-05 19:04:00,
2013-03-05 11:09:00,43.2,42.4,29.80,South,180,4.5,4.5,97,0.09,RA,,0.53,WeatherDisplay:10.37,2013-03-05 19:09:00,
2013-03-05 11:14:00,43.2,42.4,29.79,SE,135,4.6,4.6,97,0.08,RA,,0.53,WeatherDisplay:10.37,2013-03-05 19:14:00,
2013-03-05 11:19:00,43.2,42.4,29.80,SW,225,4.6,4.6,97,0.07,,,0.53,WeatherDisplay:10.37,2013-03-05 19:19:00,
2013-03-05 11:24:00,43.2,42.4,29.80,South,180,3.5,3.5,97,0.07,RA,,0.54,WeatherDisplay:10.37,2013-03-05 19:24:00,
2013-03-05 11:29:00,43.3,42.5,29.81,SW,225,3.5,0.0,97,0.08,RA,,0.56,WeatherDisplay:10.37,2013-03-05 19:29:00,
2013-03-05 11:34:00,43.2,42.4,29.80,SE,135,3.5,3.5,97,0.07,RA,,0.56,WeatherDisplay:10.37,2013-03-05 19:34:00,
2013-03-05 11:39:00,43.2,42.4,29.80,South,180,3.5,3.5,97,0.08,RA,,0.57,WeatherDisplay:10.37,2013-03-05 19:39:00,
2013-03-05 11:44:00,43.2,42.4,29.80,SE,135,3.5,3.5,97,0.08,RA,,0.58,WeatherDisplay:10.37,2013-03-05 19:44:00,
2013-03-05 11:49:00,43.2,42.4,29.80,South,180,3.5,3.5,97,0.07,RA,,0.58,WeatherDisplay:10.37,2013-03-05 19:49:00,
2013-03-05 11:54:00,43.2,42.4,29.80,South,180,5.8,5.8,97,0.08,RA,,0.59,WeatherDisplay:10.37,2013-03-05 19:54:00,
2013-03-05 11:59:00,43.2,42.4,29.80,South,180,5.8,5.8,97,0.09,RA,,0.60,WeatherDisplay:10.37,2013-03-05 19:59:00,
2013-03-05 12:04:00,43.0,42.2,29.80,South,180,5.8,5.8,97,0.09,RA,,0.61,WeatherDisplay:10.37,2013-03-05 20:04:00,
2013-03-05 12:09:00,43.0,42.2,29.80,SE,135,5.8,5.8,97,0.09,RA,,0.63,WeatherDisplay:10.37,2013-03-05 20:09:00,
2013-03-05 12:14:00,43.0,42.2,29.79,SE,135,3.5,3.5,97,0.11,RA,,0.64,WeatherDisplay:10.37,2013-03-05 20:14:00,
2013-03-05 12:19:00,43.2,42.4,29.79,SE,135,2.3,2.3,97,0.12,RA,,0.65,WeatherDisplay:10.37,2013-03-05 20:19:00,
2013-03-05 12:24:00,43.2,42.4,29.79,South,180,5.8,5.8,97,0.11,RA,,0.65,WeatherDisplay:10.37,2013-03-05 20:24:00,
2013-03-05 12:29:00,43.2,42.4,29.79,South,180,6.9,6.9,97,0.09,,,0.65,WeatherDisplay:10.37,2013-03-05 20:29:00,
2013-03-05 12:34:00,43.3,42.5,29.79,South,180,5.8,5.8,97,0.11,RA,,0.66,WeatherDisplay:10.37,2013-03-05 20:34:00,
2013-03-05 12:39:00,43.3,42.5,29.78,South,180,4.6,4.6,97,0.09,RA,,0.66,WeatherDisplay:10.37,2013-03-05 20:39:00,
2013-03-05 12:44:00,43.3,42.5,29.78,East,90,6.9,0.0,97,0.08,,,0.66,WeatherDisplay:10.37,2013-03-05 20:44:00,
2013-03-05 12:49:00,43.3,42.5,29.78,South,180,8.1,8.1,97,0.09,RA,,0.67,WeatherDisplay:10.37,2013-03-05 20:49:00,
2013-03-05 12:54:00,43.5,42.7,29.77,South,180,3.8,3.8,97,0.08,RA,,0.67,WeatherDisplay:10.37,2013-03-05 20:54:00,
2013-03-05 12:59:00,43.5,42.7,29.77,SE,135,4.6,4.6,97,0.07,CLR,,0.67,WeatherDisplay:10.37,2013-03-05 20:59:00,
2013-03-05 13:04:00,43.5,42.7,29.77,SE,135,5.8,5.8,97,0.06,CLR,,0.67,WeatherDisplay:10.37,2013-03-05 21:04:00,
2013-03-05 13:09:00,43.5,42.7,29.77,SE,135,5.8,5.8,97,0.05,CLR,,0.67,WeatherDisplay:10.37,2013-03-05 21:09:00,
2013-03-05 13:14:00,43.9,43.1,29.76,SE,135,2.3,2.3,97,0.04,CLR,,0.67,WeatherDisplay:10.37,2013-03-05 21:14:00,
2013-03-05 13:19:00,44.1,43.3,29.76,SE,135,5.8,5.8,97,0.02,CLR,,0.67,WeatherDisplay:10.37,2013-03-05 21:19:00,
2013-03-05 13:24:00,44.1,43.0,29.76,South,180,5.8,5.8,96,0.02,CLR,,0.67,WeatherDisplay:10.37,2013-03-05 21:24:00,
2013-03-05 13:29:00,44.2,43.2,29.75,South,180,3.5,4.5,96,0.02,CLR,,0.67,WeatherDisplay:10.37,2013-03-05 21:29:00,
2013-03-05 13:34:00,44.4,43.4,29.76,South,180,5.8,5.8,96,0.01,CLR,,0.67,WeatherDisplay:10.37,2013-03-05 21:34:00,
2013-03-05 13:39:00,44.4,43.1,29.75,South,180,5.8,5.8,95,0.01,CLR,,0.67,WeatherDisplay:10.37,2013-03-05 21:39:00,
2013-03-05 13:44:00,44.6,43.3,29.75,South,180,5.8,5.8,95,0.01,CLR,,0.67,WeatherDisplay:10.37,2013-03-05 21:44:00,
2013-03-05 13:49:00,44.6,43.3,29.75,SSW,202,5.8,5.8,95,0.00,CLR,,0.67,WeatherDisplay:10.37,2013-03-05 21:49:00,
2013-03-05 13:54:00,44.6,43.3,29.75,SSE,158,5.8,5.8,95,0.00,CLR,,0.67,WeatherDisplay:10.37,2013-03-05 21:54:00,
2013-03-05 13:59:00,44.6,43.3,29.75,South,180,4.6,4.6,95,0.00,CLR,,0.67,WeatherDisplay:10.37,2013-03-05 21:59:00,
2013-03-05 14:04:00,44.8,43.4,29.74,SW,225,3.5,3.5,95,0.00,CLR,,0.67,WeatherDisplay:10.37,2013-03-05 22:04:00,
2013-03-05 14:09:00,45.0,43.6,29.74,South,180,3.5,3.5,95,0.00,CLR,,0.67,WeatherDisplay:10.37,2013-03-05 22:09:00,
2013-03-05 14:14:00,45.1,43.8,29.74,South,180,3.5,3.5,95,0.00,CLR,,0.67,WeatherDisplay:10.37,2013-03-05 22:14:00,
2013-03-05 14:19:00,45.1,43.8,29.74,SSW,202,4.6,4.6,95,0.00,CLR,,0.67,WeatherDisplay:10.37,2013-03-05 22:19:00,
2013-03-05 14:24:00,45.3,44.0,29.74,SW,225,3.5,3.5,95,0.00,CLR,,0.67,WeatherDisplay:10.37,2013-03-05 22:24:00,
2013-03-05 14:29:00,45.3,43.7,29.74,SE,135,6.9,6.9,94,0.00,CLR,,0.67,WeatherDisplay:10.37,2013-03-05 22:29:00,
2013-03-05 14:34:00,45.1,43.5,29.73,South,180,5.8,5.8,94,0.00,CLR,,0.67,WeatherDisplay:10.37,2013-03-05 22:34:00,
2013-03-05 14:39:00,45.3,43.4,29.73,SE,135,5.8,5.8,93,0.00,CLR,,0.67,WeatherDisplay:10.37,2013-03-05 22:39:00,
2013-03-05 14:44:00,45.5,43.6,29.73,South,180,3.5,3.5,93,0.00,CLR,,0.67,WeatherDisplay:10.37,2013-03-05 22:44:00,
2013-03-05 14:49:00,45.3,43.1,29.73,SE,135,11.5,11.5,92,0.00,CLR,,0.67,WeatherDisplay:10.37,2013-03-05 22:49:00,
2013-03-05 14:54:00,45.3,43.4,29.73,SE,135,8.1,8.1,93,0.00,CLR,,0.67,WeatherDisplay:10.37,2013-03-05 22:54:00,
2013-03-05 14:59:00,45.1,43.0,29.73,SE,135,10.4,10.4,92,0.00,CLR,,0.67,WeatherDisplay:10.37,2013-03-05 22:59:00,
2013-03-05 15:04:00,45.0,42.8,29.73,South,180,5.8,5.8,92,0.00,CLR,,0.67,WeatherDisplay:10.37,2013-03-05 23:04:00,
2013-03-05 15:09:00,44.8,42.9,29.73,South,180,8.1,8.1,93,0.00,CLR,,0.67,WeatherDisplay:10.37,2013-03-05 23:09:00,
2013-03-05 15:14:00,44.8,42.9,29.73,South,180,8.1,8.1,93,0.00,CLR,,0.67,WeatherDisplay:10.37,2013-03-05 23:14:00,
2013-03-05 15:19:00,44.6,42.7,29.73,South,180,8.1,8.1,93,0.00,CLR,,0.67,WeatherDisplay:10.37,2013-03-05 23:19:00,
2013-03-05 15:24:00,44.6,42.7,29.72,South,180,3.5,4.5,93,0.00,CLR,,0.67,WeatherDisplay:10.37,2013-03-05 23:24:00,
2013-03-05 15:29:00,44.4,42.5,29.72,SE,135,5.8,5.8,93,0.00,CLR,,0.67,WeatherDisplay:10.37,2013-03-05 23:29:00,
2013-03-05 15:34:00,44.4,42.8,29.72,South,180,4.6,4.6,94,0.00,CLR,,0.67,WeatherDisplay:10.37,2013-03-05 23:34:00,
2013-03-05 15:39:00,44.4,42.8,29.71,SE,135,4.6,4.6,94,0.00,CLR,,0.67,WeatherDisplay:10.37,2013-03-05 23:39:00,
2013-03-05 15:44:00,44.4,43.1,29.71,South,180,8.1,8.1,95,0.00,CLR,,0.67,WeatherDisplay:10.37,2013-03-05 23:44:00,
2013-03-05 15:49:00,44.4,43.1,29.71,NE,45,1.2,0.0,95,0.01,RA,,0.69,WeatherDisplay:10.37,2013-03-05 23:49:00,
2013-03-05 15:54:00,44.4,43.1,29.70,SW,225,2.3,2.3,95,0.01,RA,,0.69,WeatherDisplay:10.37,2013-03-05 23:54:00,
2013-03-05 15:59:00,44.4,43.1,29.71,South,180,3.5,3.5,95,0.01,,,0.69,WeatherDisplay:10.37,2013-03-05 23:59:00,
2013-03-05 16:04:00,44.6,43.3,29.70,South,180,1.2,0.0,95,0.01,CLR,,0.69,WeatherDisplay:10.37,2013-03-06 00:04:00,
2013-03-05 16:09:00,44.8,43.7,29.70,South,180,1.2,0.0,96,0.01,CLR,,0.69,WeatherDisplay:10.37,2013-03-06 00:09:00,
2013-03-05 16:14:00,44.8,43.7,29.70,East,90,1.2,0.0,96,0.01,CLR,,0.69,WeatherDisplay:10.37,2013-03-06 00:14:00,
2013-03-05 16:19:00,44.8,43.7,29.70,SW,225,3.5,3.5,96,0.01,CLR,,0.69,WeatherDisplay:10.37,2013-03-06 00:19:00,
2013-03-05 16:24:00,44.8,43.7,29.70,SW,225,1.2,0.0,96,0.01,CLR,,0.69,WeatherDisplay:10.37,2013-03-06 00:24:00,
2013-03-05 16:29:00,44.8,43.7,29.69,West,270,0.0,0.0,96,0.01,CLR,,0.69,WeatherDisplay:10.37,2013-03-06 00:29:00,
2013-03-05 16:34:00,44.8,43.7,29.69,SE,135,0.0,0.0,96,0.02,RA,,0.70,WeatherDisplay:10.37,2013-03-06 00:34:00,
2013-03-05 16:39:00,44.8,43.7,29.69,SW,225,0.0,0.0,96,0.02,RA,,0.70,WeatherDisplay:10.37,2013-03-06 00:39:00,
2013-03-05 16:45:00,44.6,43.5,29.69,NE,45,1.2,0.0,96,0.02,CLR,,0.70,WeatherDisplay:10.37,2013-03-06 00:45:00,
2013-03-05 16:50:00,44.6,43.5,29.68,NE,45,1.2,0.0,96,0.01,CLR,,0.70,WeatherDisplay:10.37,2013-03-06 00:50:00,
2013-03-05 16:55:00,44.8,43.7,29.68,NE,45,1.2,0.0,96,0.01,CLR,,0.70,WeatherDisplay:10.37,2013-03-06 00:55:00,
2013-03-05 17:00:00,44.6,43.8,29.68,NE,45,1.2,0.0,97,0.01,CLR,,0.70,WeatherDisplay:10.37,2013-03-06 01:00:00,
2013-03-05 17:05:00,44.6,43.8,29.67,North,0,1.2,1.2,97,0.01,CLR,,0.70,WeatherDisplay:10.37,2013-03-06 01:05:00,
2013-03-05 17:10:00,44.6,43.8,29.67,North,0,1.2,0.0,97,0.01,CLR,,0.70,WeatherDisplay:10.37,2013-03-06 01:10:00,
2013-03-05 17:15:00,44.6,43.8,29.67,NE,45,1.2,0.0,97,0.01,CLR,,0.70,WeatherDisplay:10.37,2013-03-06 01:15:00,
2013-03-05 17:20:00,44.4,43.6,29.66,North,0,0.0,0.0,97,0.01,CLR,,0.70,WeatherDisplay:10.37,2013-03-06 01:20:00,
2013-03-05 17:25:00,44.4,43.6,29.66,NE,45,1.2,1.2,97,0.01,CLR,,0.70,WeatherDisplay:10.37,2013-03-06 01:25:00,
2013-03-05 17:30:00,44.4,43.6,29.66,SW,225,2.3,0.0,97,0.01,CLR,,0.70,WeatherDisplay:10.37,2013-03-06 01:30:00,
2013-03-05 17:35:00,44.4,43.6,29.66,SW,225,1.2,0.0,97,0.00,CLR,,0.70,WeatherDisplay:10.37,2013-03-06 01:35:00,
2013-03-05 17:40:00,44.4,43.6,29.66,NE,45,1.2,0.0,97,0.00,CLR,,0.70,WeatherDisplay:10.37,2013-03-06 01:40:00,
2013-03-05 17:45:00,44.2,43.4,29.66,South,180,1.2,0.0,97,0.00,CLR,,0.70,WeatherDisplay:10.37,2013-03-06 01:45:00,
2013-03-05 17:50:00,44.2,43.4,29.66,South,180,0.0,0.0,97,0.00,CLR,,0.70,WeatherDisplay:10.37,2013-03-06 01:50:00,
2013-03-05 17:55:00,44.2,43.4,29.66,South,180,1.2,0.0,97,0.00,CLR,,0.70,WeatherDisplay:10.37,2013-03-06 01:55:00,
2013-03-05 18:00:00,44.2,43.4,29.66,SW,225,1.2,0.0,97,0.00,CLR,,0.70,WeatherDisplay:10.37,2013-03-06 02:00:00,
2013-03-05 18:05:00,44.1,43.5,29.66,West,270,0.0,0.0,98,0.00,CLR,,0.70,WeatherDisplay:10.37,2013-03-06 02:05:00,
2013-03-05 18:10:00,44.1,43.3,29.66,West,270,1.2,0.0,97,0.00,CLR,,0.70,WeatherDisplay:10.37,2013-03-06 02:10:00,
2013-03-05 18:15:00,44.1,43.5,29.66,SW,225,1.2,0.0,98,0.00,CLR,,0.70,WeatherDisplay:10.37,2013-03-06 02:15:00,
2013-03-05 18:20:00,44.1,43.5,29.66,East,90,1.2,0.0,98,0.00,CLR,,0.70,WeatherDisplay:10.37,2013-03-06 02:20:00,
2013-03-05 18:25:00,44.1,43.5,29.65,East,90,0.0,0.0,98,0.00,CLR,,0.70,WeatherDisplay:10.37,2013-03-06 02:25:00,
2013-03-05 18:30:00,44.1,43.5,29.65,South,180,0.0,0.0,98,0.00,CLR,,0.70,WeatherDisplay:10.37,2013-03-06 02:30:00,
2013-03-05 18:35:00,43.9,43.4,29.65,South,180,0.0,0.0,98,0.00,CLR,,0.70,WeatherDisplay:10.37,2013-03-06 02:35:00,
2013-03-05 18:40:00,43.9,43.4,29.65,South,180,1.2,0.0,98,0.00,CLR,,0.70,WeatherDisplay:10.37,2013-03-06 02:40:00,
2013-03-05 18:45:00,43.9,43.4,29.65,South,180,1.6,0.0,98,0.00,CLR,,0.70,WeatherDisplay:10.37,2013-03-06 02:45:00,
2013-03-05 18:50:00,43.9,43.4,29.65,SW,225,0.0,0.0,98,0.00,CLR,,0.70,WeatherDisplay:10.37,2013-03-06 02:50:00,
2013-03-05 18:55:00,43.7,43.2,29.65,SW,225,0.0,0.0,98,0.00,CLR,,0.70,WeatherDisplay:10.37,2013-03-06 02:55:00,
2013-03-05 19:00:00,43.7,43.2,29.65,NE,45,1.2,0.0,98,0.00,CLR,,0.70,WeatherDisplay:10.37,2013-03-06 03:00:00,
2013-03-05 19:05:00,43.7,43.2,29.65,West,270,0.0,0.0,98,0.00,CLR,,0.70,WeatherDisplay:10.37,2013-03-06 03:05:00,
2013-03-05 19:10:00,43.7,43.2,29.64,SW,225,2.3,0.0,98,0.00,CLR,,0.70,WeatherDisplay:10.37,2013-03-06 03:10:00,
2013-03-05 19:15:00,43.5,43.0,29.64,NE,45,1.2,1.2,98,0.00,CLR,,0.70,WeatherDisplay:10.37,2013-03-06 03:15:00,
2013-03-05 19:20:00,43.5,43.0,29.64,East,90,0.0,0.0,98,0.00,CLR,,0.70,WeatherDisplay:10.37,2013-03-06 03:20:00,
2013-03-05 19:25:00,43.5,43.0,29.64,East,90,0.0,0.0,98,0.00,CLR,,0.70,WeatherDisplay:10.37,2013-03-06 03:25:00,
2013-03-05 19:30:00,43.5,43.0,29.63,NE,45,1.2,0.0,98,0.00,CLR,,0.70,WeatherDisplay:10.37,2013-03-06 03:30:00,
2013-03-05 19:35:00,43.3,42.8,29.63,NE,45,1.2,1.2,98,0.00,CLR,,0.70,WeatherDisplay:10.37,2013-03-06 03:35:00,
2013-03-05 19:40:00,43.3,42.8,29.63,East,90,1.2,0.0,98,0.00,CLR,,0.70,WeatherDisplay:10.37,2013-03-06 03:40:00,
2013-03-05 19:45:00,43.3,42.8,29.63,SE,135,0.0,0.0,98,0.00,CLR,,0.70,WeatherDisplay:10.37,2013-03-06 03:45:00,
2013-03-05 19:50:00,43.3,43.1,29.63,NE,45,1.2,1.2,99,0.00,CLR,,0.70,WeatherDisplay:10.37,2013-03-06 03:50:00,
2013-03-05 19:55:00,43.3,42.8,29.62,NE,45,0.0,0.0,98,0.00,CLR,,0.70,WeatherDisplay:10.37,2013-03-06 03:55:00,
2013-03-05 20:00:00,43.2,42.6,29.62,NE,45,1.2,0.0,98,0.00,CLR,,0.70,WeatherDisplay:10.37,2013-03-06 04:00:00,
2013-03-05 20:05:00,43.2,42.6,29.62,South,180,1.2,0.0,98,0.00,CLR,,0.70,WeatherDisplay:10.37,2013-03-06 04:05:00,
2013-03-05 20:10:00,43.2,42.9,29.62,NE,45,1.2,0.0,99,0.00,CLR,,0.70,WeatherDisplay:10.37,2013-03-06 04:10:00,
2013-03-05 20:15:00,43.2,42.9,29.62,NE,45,1.2,0.0,99,0.00,CLR,,0.70,WeatherDisplay:10.37,2013-03-06 04:15:00,
2013-03-05 20:20:00,43.2,42.9,29.62,NE,45,0.0,0.0,99,0.00,CLR,,0.70,WeatherDisplay:10.37,2013-03-06 04:20:00,
2013-03-05 20:25:00,43.2,42.9,29.62,North,0,1.2,0.0,99,0.00,CLR,,0.70,WeatherDisplay:10.37,2013-03-06 04:25:00,
2013-03-05 20:30:00,43.2,42.9,29.62,NW,315,1.6,1.6,99,0.00,CLR,,0.70,WeatherDisplay:10.37,2013-03-06 04:30:00,
2013-03-05 20:35:00,43.3,43.1,29.62,West,270,1.2,0.0,99,0.00,CLR,,0.70,WeatherDisplay:10.37,2013-03-06 04:35:00,
2013-03-05 20:40:00,43.2,42.9,29.62,SW,225,1.2,1.2,99,0.00,CLR,,0.70,WeatherDisplay:10.37,2013-03-06 04:40:00,
2013-03-05 20:45:00,43.2,42.9,29.61,SW,225,0.0,0.0,99,0.00,CLR,,0.70,WeatherDisplay:10.37,2013-03-06 04:45:00,
2013-03-05 20:50:00,43.2,42.9,29.61,SE,135,1.2,0.0,99,0.00,CLR,,0.70,WeatherDisplay:10.37,2013-03-06 04:50:00,
2013-03-05 20:55:00,43.2,42.9,29.62,West,270,1.2,0.0,99,0.00,CLR,,0.70,WeatherDisplay:10.37,2013-03-06 04:55:00,
2013-03-05 21:00:00,43.2,42.9,29.61,West,270,0.0,0.0,99,0.00,CLR,,0.70,WeatherDisplay:10.37,2013-03-06 05:00:00,
2013-03-05 21:05:00,43.2,42.9,29.61,West,270,0.0,0.0,99,0.00,CLR,,0.70,WeatherDisplay:10.37,2013-03-06 05:05:00,
2013-03-05 21:10:00,43.2,42.9,29.62,West,270,0.0,0.0,99,0.00,CLR,,0.70,WeatherDisplay:10.37,2013-03-06 05:10:00,
2013-03-05 21:15:00,43.2,42.9,29.61,South,180,0.0,0.0,99,0.00,CLR,,0.70,WeatherDisplay:10.37,2013-03-06 05:15:00,
2013-03-05 21:20:00,43.2,42.9,29.61,South,180,0.0,0.0,99,0.00,CLR,,0.70,WeatherDisplay:10.37,2013-03-06 05:20:00,
2013-03-05 21:25:00,43.2,42.9,29.61,South,180,0.0,0.0,99,0.00,CLR,,0.70,WeatherDisplay:10.37,2013-03-06 05:25:00,
2013-03-05 21:30:00,43.2,42.9,29.60,South,180,0.0,0.0,99,0.00,CLR,,0.70,WeatherDisplay:10.37,2013-03-06 05:30:00,
2013-03-05 21:35:00,43.2,42.9,29.60,SE,135,1.2,0.0,99,0.00,CLR,,0.70,WeatherDisplay:10.37,2013-03-06 05:35:00,
2013-03-05 21:40:00,43.0,42.7,29.60,NE,45,1.2,0.0,99,0.00,CLR,,0.70,WeatherDisplay:10.37,2013-03-06 05:40:00,
2013-03-05 21:45:00,43.2,42.9,29.60,North,0,0.0,0.0,99,0.00,CLR,,0.70,WeatherDisplay:10.37,2013-03-06 05:45:00,
2013-03-05 21:50:00,43.2,42.9,29.60,North,0,1.2,0.0,99,0.00,CLR,,0.70,WeatherDisplay:10.37,2013-03-06 05:50:00,
2013-03-05 21:55:00,43.2,42.9,29.60,West,270,0.0,0.0,99,0.00,CLR,,0.70,WeatherDisplay:10.37,2013-03-06 05:55:00,
2013-03-05 22:00:00,43.2,42.9,29.60,West,270,0.0,0.0,99,0.00,RA,,0.70,WeatherDisplay:10.37,2013-03-06 06:00:00,
2013-03-05 22:05:00,43.2,42.9,29.59,West,270,0.0,0.0,99,0.00,RA,,0.70,WeatherDisplay:10.37,2013-03-06 06:05:00,
2013-03-05 22:10:00,43.2,42.9,29.59,West,270,0.0,0.0,99,0.00,CLR,,0.70,WeatherDisplay:10.37,2013-03-06 06:10:00,
2013-03-05 22:15:00,43.2,42.9,29.59,NW,315,0.0,0.0,99,0.00,CLR,,0.70,WeatherDisplay:10.37,2013-03-06 06:15:00,
2013-03-05 22:20:00,43.2,42.9,29.59,NW,315,0.0,0.0,99,0.00,CLR,,0.70,WeatherDisplay:10.37,2013-03-06 06:20:00,
2013-03-05 22:25:00,43.2,42.9,29.59,NW,315,0.0,0.0,99,0.00,CLR,,0.70,WeatherDisplay:10.37,2013-03-06 06:25:00,
2013-03-05 22:30:00,43.0,42.7,29.59,NW,315,0.0,0.0,99,0.00,CLR,,0.70,WeatherDisplay:10.37,2013-03-06 06:30:00,
2013-03-05 22:35:00,43.0,42.7,29.59,West,270,0.0,0.0,99,0.00,CLR,,0.70,WeatherDisplay:10.37,2013-03-06 06:35:00,
2013-03-05 22:40:00,43.0,42.7,29.59,West,270,0.0,0.0,99,0.00,CLR,,0.70,WeatherDisplay:10.37,2013-03-06 06:40:00,
2013-03-05 22:45:00,43.0,42.7,29.59,West,270,0.0,0.0,99,0.00,CLR,,0.70,WeatherDisplay:10.37,2013-03-06 06:45:00,
2013-03-05 22:50:00,43.0,42.7,29.59,NW,315,0.0,0.0,99,0.00,CLR,,0.70,WeatherDisplay:10.37,2013-03-06 06:50:00,
2013-03-05 22:55:00,43.2,42.9,29.59,West,270,1.2,0.0,99,0.00,CLR,,0.70,WeatherDisplay:10.37,2013-03-06 06:55:00,
2013-03-05 23:00:00,43.0,42.7,29.59,West,270,1.2,0.0,99,0.00,CLR,,0.70,WeatherDisplay:10.37,2013-03-06 07:00:00,
2013-03-05 23:05:00,43.2,42.9,29.59,SW,225,1.2,0.0,99,0.00,CLR,,0.70,WeatherDisplay:10.37,2013-03-06 07:05:00,
2013-03-05 23:10:00,43.2,42.9,29.58,SE,135,1.2,0.0,99,0.00,CLR,,0.70,WeatherDisplay:10.37,2013-03-06 07:10:00,
2013-03-05 23:15:00,43.2,42.9,29.58,South,180,1.2,0.0,99,0.00,CLR,,0.70,WeatherDisplay:10.37,2013-03-06 07:15:00,
2013-03-05 23:20:00,43.2,42.9,29.58,South,180,0.0,0.0,99,0.00,CLR,,0.70,WeatherDisplay:10.37,2013-03-06 07:20:00,
2013-03-05 23:25:00,43.0,42.7,29.58,NE,45,1.2,0.0,99,0.00,CLR,,0.70,WeatherDisplay:10.37,2013-03-06 07:25:00,
2013-03-05 23:30:00,43.2,42.9,29.58,NE,45,1.2,0.0,99,0.00,CLR,,0.70,WeatherDisplay:10.37,2013-03-06 07:30:00,
2013-03-05 23:35:00,43.2,42.9,29.58,West,270,0.0,0.0,99,0.00,CLR,,0.70,WeatherDisplay:10.37,2013-03-06 07:35:00,
2013-03-05 23:40:00,43.0,42.7,29.57,SW,225,1.2,1.2,99,0.00,CLR,,0.70,WeatherDisplay:10.37,2013-03-06 07:40:00,
2013-03-05 23:45:00,43.2,42.9,29.58,SW,225,1.2,0.0,99,0.01,RA,,0.71,WeatherDisplay:10.37,2013-03-06 07:45:00,
2013-03-05 23:50:00,43.2,42.9,29.58,NW,315,1.2,0.0,99,0.01,RA,,0.71,WeatherDisplay:10.37,2013-03-06 07:50:00,
2013-03-05 23:55:00,43.2,42.9,29.58,SW,225,0.0,0.0,99,0.01,CLR,,0.71,WeatherDisplay:10.37,2013-03-06 07:55:00,